Time;durP1;ratioP1;P1;durP2;ratioP2;P2;SDS_P1;SDS_P2;PMS_P1;PMS_P2;Temp;Humidity;BMP_temperature;BMP_pressure;BME280_temperature;BME280_humidity;BME280_pressure;Samples;Min_cycle;Max_cycle;Signal;HPM_P1;HPM_P2
2022/04/01 00:03:15;;;;;;;4.00;1.72;;;;;;;9.58;28.04;98806.46;2352285;84;25860;-76
2022/04/01 00:07:02;;;;;;;3.42;1.50;;;;;;;9.58;28.09;98805.59;2348529;82;25624;-75
2022/04/01 00:10:29;;;;;;;3.12;1.50;;;;;;;9.54;28.07;98802.56;2353848;82;25679;-75
2022/04/01 00:14:25;;;;;;;3.62;2.02;;;;;;;9.50;28.26;98806.02;2354967;84;25807;-76
2022/04/01 00:17:58;;;;;;;;;;;;;;;;;;;;;
2022/04/01 00:22:00;;;;;;;1.90;1.52;;;;;;;9.51;28.34;98801.25;2352786;82;25744;-76
2022/04/01 00:25:28;;;;;;;6.50;1.77;;;;;;;9.49;28.34;98796.06;2350353;82;25720;-75
2022/04/01 00:29:26;;;;;;;2.52;1.42;;;;;;;9.46;28.38;98794.31;2334373;82;25763;-75
2022/04/01 00:33:08;;;;;;;1.47;1.10;;;;;;;9.43;28.42;98785.63;2414985;81;25747;-77
2022/04/01 00:37:18;;;;;;;2.42;1.35;;;;;;;9.39;28.41;98792.56;2399932;82;25655;-75
2022/04/01 00:41:26;;;;;;;1.80;1.42;;;;;;;9.37;28.51;98788.20;2400432;82;25556;-75
2022/04/01 00:44:51;;;;;;;1.40;1.20;;;;;;;9.34;28.59;98779.09;2375057;82;25234;-76
2022/04/01 00:48:20;;;;;;;1.92;1.32;;;;;;;9.32;28.67;98772.61;2400062;82;25872;-74
2022/04/01 00:51:45;;;;;;;3.95;1.55;;;;;;;9.34;28.71;98770.00;2400186;82;25977;-74
2022/04/01 00:55:21;;;;;;;4.30;1.62;;;;;;;9.33;28.70;98780.83;2400374;82;25415;-76
2022/04/01 00:58:43;;;;;;;2.25;1.27;;;;;;;9.33;28.66;98776.94;2383440;82;25738;-75
2022/04/01 01:02:19;;;;;;;;;;;;;;;;;;;;;
2022/04/01 01:05:34;;;;;;;3.08;1.32;;;;;;;9.30;28.49;98773.02;2361193;83;25681;-76
2022/04/01 01:09:37;;;;;;;3.25;1.40;;;;;;;9.29;28.57;98771.30;2405029;80;25606;-74
2022/04/01 01:13:02;;;;;;;1.55;1.12;;;;;;;9.26;28.56;98773.87;2438104;80;25697;-74
2022/04/01 01:16:35;;;;;;;3.00;1.35;;;;;;;9.25;28.57;98766.06;2425332;80;25672;-74
2022/04/01 01:19:58;;;;;;;5.60;1.60;;;;;;;9.24;28.60;98765.20;2425560;81;25581;-75
2022/04/01 01:23:38;;;;;;;9.50;1.30;;;;;;;9.21;28.64;98766.08;2425458;81;25653;-75
2022/04/01 01:27:16;;;;;;;3.02;1.27;;;;;;;9.21;28.58;98762.17;2425516;81;25557;-74
2022/04/01 01:30:39;;;;;;;2.02;1.77;;;;;;;9.15;28.59;98749.16;2424593;80;25647;-74
2022/04/01 01:34:44;;;;;;;3.27;1.20;;;;;;;9.14;28.66;98753.03;2419007;81;25645;-75
2022/04/01 01:38:08;;;;;;;3.62;1.52;;;;;;;9.11;28.59;98744.81;2418491;81;25572;-75
2022/04/01 01:41:38;;;;;;;3.52;1.35;;;;;;;9.10;28.67;98743.05;2418528;81;25670;-75
2022/04/01 01:45:21;;;;;;;2.35;1.47;;;;;;;9.10;28.64;98735.70;2418755;81;25509;-74
2022/04/01 01:48:51;;;;;;;2.85;1.40;;;;;;;9.07;28.74;98743.48;2418815;81;25723;-74
2022/04/01 01:56:07;;;;;;;1.85;1.15;;;;;;;9.05;28.72;98731.80;2418948;80;25652;-75
2022/04/01 01:59:44;;;;;;;2.87;1.70;;;;;;;9.04;28.81;98736.97;2417733;81;25363;-76
2022/04/01 02:03:05;;;;;;;;;;;;;;;9.03;28.76;98736.11;2295546;85;25393;-76
2022/04/01 02:06:29;;;;;;;2.73;1.63;;;;;;;9.00;28.83;98730.89;2315419;85;26065;-75
2022/04/01 02:10:07;;;;;;;3.72;1.27;;;;;;;8.97;28.98;98726.55;2306920;84;25281;-74
2022/04/01 02:13:31;;;;;;;3.08;1.35;;;;;;;8.94;28.94;98730.47;2297118;84;25649;-75
2022/04/01 02:16:53;;;;;;;2.27;1.22;;;;;;;8.94;29.06;98712.67;2287799;85;25710;-75
2022/04/01 02:20:39;;;;;;;1.85;1.00;;;;;;;8.91;29.09;98717.86;2317908;84;25536;-74
2022/04/01 02:24:10;;;;;;;1.47;1.00;;;;;;;8.88;29.08;98720.48;2314347;85;25782;-76
2022/04/01 02:27:39;;;;;;;2.52;1.15;;;;;;;8.87;29.22;98716.98;2292488;85;25727;-75
2022/04/01 02:31:08;;;;;;;1.30;1.02;;;;;;;8.84;29.35;98710.91;2287227;84;25523;-76
2022/04/01 02:34:48;;;;;;;1.70;1.50;;;;;;;8.83;29.34;98713.08;2295786;84;25610;-75
2022/04/01 02:38:11;;;;;;;4.40;1.35;;;;;;;8.78;29.43;98713.51;2311479;84;25813;-75
2022/04/01 02:41:48;;;;;;;1.65;1.15;;;;;;;8.75;29.58;98708.72;2310847;84;25667;-74
2022/04/01 02:45:09;;;;;;;2.37;1.12;;;;;;;8.72;29.63;98706.55;2334964;84;25695;-74
2022/04/01 02:48:33;;;;;;;6.83;1.65;;;;;;;8.71;29.71;98704.82;2334714;84;25296;-75
2022/04/01 02:52:13;;;;;;;3.15;1.52;;;;;;;8.69;29.75;98704.80;2334281;84;25997;-74
2022/04/01 02:55:41;;;;;;;1.32;1.10;;;;;;;8.64;29.88;98691.34;2334717;84;25636;-75
2022/04/01 02:59:23;;;;;;;2.12;1.42;;;;;;;8.63;30.07;98689.61;2325773;81;25661;-74
2022/04/01 03:03:08;;;;;;;3.95;1.25;;;;;;;8.62;30.08;98693.95;2354212;83;26420;-75
2022/04/01 03:06:59;;;;;;;3.75;1.45;;;;;;;8.61;30.18;98688.76;2209494;87;25745;-76
2022/04/01 03:10:23;;;;;;;;;;;;;;;8.58;30.22;98689.61;2222950;86;25779;-75
2022/04/01 03:14:00;;;;;;;2.62;1.42;;;;;;;8.56;30.33;98689.16;2239099;86;25782;-75
2022/04/01 03:17:59;;;;;;;;;;;;;;;;;;;;;
2022/04/01 03:21:29;;;;;;;2.25;1.00;;;;;;;8.51;30.40;98683.52;2102015;92;25345;-77
2022/04/01 03:25:05;;;;;;;5.17;1.40;;;;;;;8.48;30.61;98682.64;2102738;92;25759;-76
2022/04/01 03:29:16;;;;;;;;;;;;;;;;;;;;;
2022/04/01 03:32:45;;;;;;;2.95;1.55;;;;;;;8.40;30.76;98677.38;2120327;91;25781;-75
2022/04/01 03:36:22;;;;;;;;;;;;;;;;;;;;;
2022/04/01 03:40:00;;;;;;;5.35;1.40;;;;;;;8.37;31.00;98678.66;2124343;91;25750;-75
2022/04/01 03:44:03;;;;;;;;;;;;;;;;;;;;;
2022/04/01 03:52:13;;;;;;;1.27;1.15;;;;;;;8.32;31.45;98681.65;2066028;94;25877;-75
2022/04/01 03:55:49;;;;;;;3.30;1.50;;;;;;;8.29;31.42;98669.95;2059441;95;25644;-76
2022/04/01 03:59:17;;;;;;;2.20;1.10;;;;;;;8.27;31.59;98663.91;2035688;95;25686;-74
2022/04/01 04:06:57;;;;;;;2.27;1.50;;;;;;;8.18;31.77;98683.31;1901503;104;25772;-74
2022/04/01 04:10:48;;;;;;;4.05;1.10;;;;;;;8.17;31.89;98681.15;1897231;103;25865;-74
2022/04/01 04:14:44;;;;;;;4.50;1.12;;;;;;;8.15;31.94;98671.17;1830423;107;25659;-74
2022/04/01 04:18:45;;;;;;;1.00;0.80;;;;;;;8.17;32.01;98675.09;1810315;107;25972;-76
2022/04/01 04:26:51;;;;;;;5.60;1.37;;;;;;;8.08;32.36;98683.67;1802499;108;25766;-76
2022/04/01 04:35:25;;;;;;;2.35;1.27;;;;;;;8.02;32.55;98681.91;1740633;113;26056;-74
2022/04/01 04:39:31;;;;;;;2.30;0.93;;;;;;;8.00;32.65;98677.59;1710136;114;25909;-74
2022/04/01 04:42:54;;;;;;;11.60;1.82;;;;;;;7.97;32.86;98678.86;1727203;113;26405;-73
2022/04/01 04:46:19;;;;;;;2.70;1.05;;;;;;;7.92;32.91;98676.22;1729019;113;25815;-76
2022/04/01 04:49:42;;;;;;;5.58;1.25;;;;;;;7.90;33.03;98686.16;1794901;107;25929;-75
2022/04/01 04:53:10;;;;;;;1.62;1.10;;;;;;;7.93;33.10;98682.27;1840784;106;25992;-75
2022/04/01 04:56:34;;;;;;;2.40;1.10;;;;;;;7.91;33.17;98673.19;1850518;104;25861;-75
2022/04/01 05:00:01;;;;;;;3.55;1.10;;;;;;;7.92;33.21;98693.51;1934927;101;25771;-76
2022/04/01 05:04:27;;;;;;;;;;;;;;;;;;;;;
2022/04/01 05:08:08;;;;;;;1.82;0.90;;;;;;;7.89;33.26;98694.34;2103485;93;25775;-80
2022/04/01 05:12:40;;;;;;;;;;;;;;;;;;;;;
2022/04/01 05:16:39;;;;;;;1.60;1.02;;;;;;;8.01;33.42;98693.15;2211486;87;25762;-75
2022/04/01 05:20:16;;;;;;;1.62;1.07;;;;;;;8.11;33.51;98701.87;2216638;87;25856;-75
2022/04/01 05:24:07;;;;;;;1.75;1.12;;;;;;;8.20;33.60;98706.23;2197272;89;25759;-74
2022/04/01 05:27:45;;;;;;;1.85;0.95;;;;;;;8.24;33.71;98701.52;2196594;87;25691;-74
2022/04/01 05:35:53;;;;;;;;;;;;;;;;;;;;;
2022/04/01 05:39:15;;;;;;;3.22;1.25;;;;;;;8.32;34.15;98691.17;2013208;96;25802;-76
2022/04/01 05:47:07;;;;;;;10.10;1.02;;;;;;;8.36;34.43;98705.46;1903164;102;26468;-77
2022/04/01 05:55:07;;;;;;;1.65;1.30;;;;;;;8.63;36.03;98711.70;1884648;102;26218;-78
2022/04/01 05:58:57;;;;;;;2.58;0.98;;;;;;;8.67;36.18;98713.44;1812721;107;25834;-78
2022/04/01 06:11:46;;;;;;;4.35;1.40;;;;;;;8.76;36.38;98701.80;1728506;113;26263;-78
2022/04/01 06:16:12;;;;;;;2.10;1.10;;;;;;;8.81;36.44;98697.91;1737264;111;25970;-75
2022/04/01 06:21:45;;;;;;;;;;;;;;;;;;;;;
2022/04/01 06:25:28;;;;;;;2.30;1.22;;;;;;;8.93;36.44;98696.22;1747534;111;25921;-77
2022/04/01 06:29:42;;;;;;;1.35;0.90;;;;;;;9.08;40.24;98695.82;1748347;109;26108;-78
2022/04/01 06:33:54;;;;;;;1.02;0.65;;;;;;;9.46;41.26;98691.57;1759566;110;25549;-78
2022/04/01 06:37:56;;;;;;;2.83;1.82;;;;;;;9.72;40.70;98701.13;1829562;108;25967;-76
2022/04/01 06:41:59;;;;;;;3.20;1.10;;;;;;;9.70;40.25;98689.84;1839483;106;25817;-79
2022/04/01 06:46:00;;;;;;;4.45;1.02;;;;;;;9.75;40.31;98692.44;1916039;101;26694;-77
2022/04/01 06:49:41;;;;;;;3.90;0.85;;;;;;;9.74;40.05;98681.16;1854449;104;26028;-79
2022/04/01 06:53:44;;;;;;;4.03;1.10;;;;;;;9.69;39.66;98695.48;1766487;105;26404;-76
2022/04/01 06:58:30;;;;;;;4.90;1.10;;;;;;;9.64;39.33;98694.60;1881370;103;26640;-78
2022/04/01 07:02:36;;;;;;;2.58;1.35;;;;;;;9.61;38.94;98689.39;1897686;103;26476;-78
2022/04/01 07:06:30;;;;;;;;;;;;;;;;;;;;;
2022/04/01 07:10:14;;;;;;;2.80;0.85;;;;;;;9.60;38.37;98694.61;1854912;105;25864;-78
2022/04/01 07:14:14;;;;;;;;;;;;;;;;;;;;;
2022/04/01 07:21:56;;;;;;;3.75;1.02;;;;;;;9.62;37.81;98699.40;1850206;104;25916;-78
2022/04/01 07:25:31;;;;;;;1.77;0.90;;;;;;;9.62;37.66;98679.45;1850495;105;25901;-78
2022/04/01 07:29:07;;;;;;;2.60;1.00;;;;;;;9.64;37.55;98697.20;1849947;105;26442;-78
2022/04/01 07:33:07;;;;;;;;;;;;;;;;;;;;;
2022/04/01 07:36:55;;;;;;;1.52;1.00;;;;;;;9.65;37.36;98686.36;1841385;105;26009;-78
2022/04/01 07:45:10;;;;;;;2.20;1.02;;;;;;;9.69;37.22;98693.33;1988025;99;25782;-77
2022/04/01 07:49:02;;;;;;;9.68;1.50;;;;;;;9.74;37.21;98699.81;1998365;96;25946;-78
2022/04/01 07:52:40;;;;;;;16.17;1.80;;;;;;;9.76;37.19;98691.59;2046620;93;25783;-78
2022/04/01 07:56:21;;;;;;;1.70;1.05;;;;;;;9.78;37.32;98692.00;2056454;96;26153;-78
2022/04/01 07:59:59;;;;;;;3.20;1.20;;;;;;;9.81;37.29;98693.73;1989970;98;25702;-78
2022/04/01 08:03:31;;;;;;;2.80;1.47;;;;;;;9.86;37.52;98700.69;1989978;95;25791;-78
2022/04/01 08:07:00;;;;;;;3.60;1.05;;;;;;;9.92;37.47;98699.39;1987597;98;25748;-78
2022/04/01 08:10:30;;;;;;;4.05;1.42;;;;;;;9.98;37.56;98710.20;1989751;99;25655;-78
2022/04/01 08:14:14;;;;;;;1.70;1.12;;;;;;;10.02;37.65;98692.41;1989785;99;25816;-79
2022/04/01 08:17:56;;;;;;;10.78;1.27;;;;;;;10.09;37.72;98683.75;1927780;101;25825;-77
2022/04/01 08:21:49;;;;;;;13.15;2.85;;;;;;;10.17;37.68;98695.44;1926007;101;25784;-77
2022/04/01 08:25:12;;;;;;;7.97;1.22;;;;;;;10.23;37.75;98681.11;1901109;103;25857;-78
2022/04/01 08:28:35;;;;;;;2.75;1.10;;;;;;;10.27;37.74;98684.17;1936011;99;25830;-78
2022/04/01 08:36:07;;;;;;;2.05;1.27;;;;;;;10.34;37.77;98689.79;1863734;102;26108;-78
2022/04/01 08:39:43;;;;;;;4.70;1.10;;;;;;;10.38;37.76;98690.64;1931257;102;25891;-77
2022/04/01 08:43:39;;;;;;;3.08;1.20;;;;;;;10.41;37.75;98691.94;1931633;100;25886;-78
2022/04/01 08:47:13;;;;;;;4.55;1.65;;;;;;;10.45;37.87;98690.19;1931458;100;25698;-78
2022/04/01 08:50:50;;;;;;;3.27;1.27;;;;;;;10.49;37.80;98703.63;1931885;100;26025;-77
2022/04/01 08:54:19;;;;;;;1.40;1.10;;;;;;;10.52;37.83;98701.88;1943020;100;25846;-78
2022/04/01 08:57:44;;;;;;;5.97;1.30;;;;;;;10.55;37.89;98704.48;1937170;100;25894;-78
2022/04/01 09:01:34;;;;;;;8.85;1.32;;;;;;;10.58;38.01;98703.61;1937653;101;25952;-78
2022/04/01 09:05:12;;;;;;;4.80;1.30;;;;;;;10.62;37.96;98710.09;1904469;98;25769;-78
2022/04/01 09:08:47;;;;;;;3.75;1.55;;;;;;;10.64;38.04;98702.30;2017960;97;25866;-78
2022/04/01 09:12:16;;;;;;;1.90;0.98;;;;;;;10.68;38.19;98707.92;2001256;97;25851;-78
2022/04/01 09:16:41;;;;;;;4.78;1.37;;;;;;;10.68;38.23;98708.36;2002282;98;26539;-76
2022/04/01 09:24:39;;;;;;;2.87;1.45;;;;;;;10.67;38.48;98703.59;1915296;101;26058;-77
2022/04/01 09:28:50;;;;;;;3.90;1.20;;;;;;;10.68;38.56;98702.70;1915311;102;25835;-79
2022/04/01 09:32:10;;;;;;;3.52;1.32;;;;;;;10.73;38.67;98693.55;1900825;100;25860;-78
2022/04/01 09:36:07;;;;;;;2.85;1.05;;;;;;;10.74;38.72;98690.09;1898670;101;26589;-78
2022/04/01 09:40:49;;;;;;;;;;;;;;;;;;;;;
2022/04/01 09:44:40;;;;;;;1.87;1.65;;;;;;;10.72;38.87;98696.60;2207427;79;25636;-77
2022/04/01 09:48:31;;;;;;;5.87;1.37;;;;;;;10.73;39.23;98688.34;2412129;81;25652;-77
2022/04/01 09:56:59;;;;;;;3.30;1.10;;;;;;;10.84;39.25;98694.39;2286412;85;26512;-78
2022/04/01 10:05:00;;;;;;;;;;;;;;;;;;;;;
2022/04/01 10:08:39;;;;;;;3.55;1.40;;;;;;;10.90;39.39;98702.61;2173351;89;25364;-78
2022/04/01 10:16:12;;;;;;;5.72;1.55;;;;;;;10.94;39.65;98696.09;2041412;95;25923;-76
2022/04/01 10:19:52;;;;;;;3.70;1.55;;;;;;;10.97;39.69;98681.73;2052107;96;25653;-77
2022/04/01 10:24:09;;;;;;;5.37;1.70;;;;;;;10.98;39.62;98691.72;1985563;99;25851;-78
2022/04/01 10:28:04;;;;;;;1.95;1.45;;;;;;;10.99;39.77;98679.97;1919403;100;25990;-77
2022/04/01 10:40:06;;;;;;;3.80;1.27;;;;;;;11.04;39.95;98690.39;2008258;97;26437;-77
2022/04/01 10:43:52;;;;;;;;;;;;;;;11.06;40.13;98692.53;1963027;99;26080;-76
2022/04/01 10:51:36;;;;;;;7.42;1.65;;;;;;;11.08;40.33;98685.58;1983835;97;25806;-77
2022/04/01 10:51:39;;;;;;;3.58;1.67;;;;;;;11.10;40.41;98691.63;2042336;96;25745;-76
2022/04/01 10:55:18;;;;;;;2.00;1.40;;;;;;;11.10;40.32;98675.98;2042932;96;25970;-77
2022/04/01 10:59:29;;;;;;;6.65;1.90;;;;;;;11.09;40.50;98671.66;2042202;96;25837;-83
2022/04/01 11:07:36;;;;;;;5.08;1.70;;;;;;;11.04;40.60;98678.66;2073426;95;25896;-77
2022/04/01 11:11:19;;;;;;;3.52;1.60;;;;;;;11.01;40.55;98687.80;2050237;95;25472;-78
2022/04/01 11:15:25;;;;;;;3.05;1.62;;;;;;;10.93;40.55;98672.17;2071760;95;25808;-77
2022/04/01 11:19:27;;;;;;;4.80;2.72;;;;;;;10.89;40.64;98675.67;2078252;92;26470;-76
2022/04/01 11:23:14;;;;;;;2.33;1.55;;;;;;;10.91;40.74;98661.34;2133880;92;25942;-75
2022/04/01 11:26:51;;;;;;;4.15;1.30;;;;;;;10.93;40.81;98680.44;2142422;92;25696;-77
2022/04/01 11:30:25;;;;;;;2.00;1.20;;;;;;;10.95;41.05;98680.86;2144405;92;26028;-77
2022/04/01 11:34:10;;;;;;;5.37;1.98;;;;;;;10.96;41.05;98677.81;2144931;92;25764;-76
2022/04/01 11:37:44;;;;;;;7.70;2.52;;;;;;;10.93;40.98;98678.69;2067003;95;25936;-76
2022/04/01 11:41:06;;;;;;;3.25;1.42;;;;;;;10.88;41.02;98679.16;2065914;95;25898;-77
2022/04/01 11:45:01;;;;;;;3.33;1.70;;;;;;;10.82;41.08;98676.14;2105621;92;25791;-77
2022/04/01 11:49:04;;;;;;;3.90;1.82;;;;;;;10.78;41.17;98673.13;2165030;89;25847;-79
2022/04/01 11:53:05;;;;;;;5.25;2.02;;;;;;;10.75;41.29;98676.19;2165215;89;25868;-78
2022/04/01 11:56:37;;;;;;;5.58;2.00;;;;;;;10.78;41.37;98676.17;2141994;89;25958;-79
2022/04/01 12:00:25;;;;;;;7.00;1.90;;;;;;;10.72;41.39;98677.05;2141385;89;25746;-80
2022/04/01 12:04:18;;;;;;;3.05;1.42;;;;;;;10.69;42.04;98686.62;2159807;88;25783;-77
2022/04/01 12:11:55;;;;;;;3.27;2.30;;;;;;;10.77;42.54;98697.47;2165509;91;25784;-81
2022/04/01 12:15:45;;;;;;;2.70;1.57;;;;;;;10.73;42.68;98686.63;2108153;92;25764;-79
2022/04/01 12:19:37;;;;;;;9.80;1.62;;;;;;;10.72;42.70;98686.18;2130039;92;26099;-78
2022/04/01 12:23:15;;;;;;;4.15;1.95;;;;;;;10.71;42.76;98688.36;2114359;92;25772;-77
2022/04/01 12:27:11;;;;;;;11.93;1.95;;;;;;;10.73;42.85;98690.55;2042608;96;25921;-85
2022/04/01 12:30:55;;;;;;;6.72;1.82;;;;;;;10.73;42.73;98692.25;1979573;96;25846;-80
2022/04/01 12:35:09;;;;;;;;;;;;;;;;;;;;;
2022/04/01 12:42:31;;;;;;;7.50;1.75;;;;;;;10.79;44.79;98690.48;1986272;98;25876;-82
2022/04/01 12:46:07;;;;;;;4.75;1.95;;;;;;;11.04;44.59;98691.70;1954089;98;26334;-81
2022/04/01 12:54:33;;;;;;;;;;;;;;;;;;;;;
2022/04/01 12:58:14;;;;;;;6.03;1.80;;;;;;;11.18;45.09;98678.57;1877363;104;26168;-81
2022/04/01 13:01:54;;;;;;;5.03;2.05;;;;;;;11.17;44.93;98676.41;1832227;103;25454;-81
2022/04/01 13:05:38;;;;;;;;;;;;;;;;;;;;;
2022/04/01 13:09:31;;;;;;;6.45;1.85;;;;;;;11.15;44.67;98679.89;1878210;101;25993;-80
2022/04/01 13:13:32;;;;;;;;;;;;;;;;;;;;;
2022/04/01 13:17:09;;;;;;;;;;;;;;;11.04;44.47;98670.84;1835507;106;25882;-82
2022/04/01 13:20:49;;;;;;;5.70;1.90;;;;;;;10.99;44.42;98671.28;1840187;105;26442;-78
2022/04/01 13:24:47;;;;;;;3.27;2.02;;;;;;;10.93;44.32;98667.40;1871382;104;25904;-79
2022/04/01 13:28:16;;;;;;;5.28;2.17;;;;;;;10.87;44.33;98677.44;1817608;108;26549;-81
2022/04/01 13:31:57;;;;;;;8.40;2.05;;;;;;;10.83;44.27;98673.09;1817001;108;25930;-81
2022/04/01 13:35:47;;;;;;;7.80;2.87;;;;;;;10.78;44.24;98680.08;1825139;106;25961;-79
2022/04/01 13:39:44;;;;;;;7.87;2.00;;;;;;;10.71;44.23;98674.03;1785629;108;25754;-81
2022/04/01 13:43:46;;;;;;;;;;;;;;;;;;;;;
2022/04/01 14:00:19;;;;;;;;;;;;;;;;;;;;;
2022/04/01 14:04:10;;;;;;;4.50;1.85;;;;;;;10.42;44.25;98679.34;1837160;103;25902;-84
2022/04/01 14:08:20;;;;;;;2.72;1.72;;;;;;;10.36;44.33;98671.12;1875372;104;25893;-82
2022/04/01 14:12:34;;;;;;;5.75;1.52;;;;;;;10.33;44.37;98663.77;1853676;104;26750;-81
2022/04/01 14:16:58;;;;;;;;;;;;;;;;;;;;;
2022/04/01 14:20:44;;;;;;;2.10;1.90;;;;;;;10.30;44.44;98674.19;1858059;103;25905;-84
2022/04/01 14:32:01;;;;;;;2.12;1.50;;;;;;;10.25;44.55;98671.98;1856743;103;26622;-82
2022/04/01 14:35:41;;;;;;;2.30;1.70;;;;;;;10.18;44.60;98681.10;1784916;109;25888;-82
2022/04/01 14:39:18;;;;;;;;;;;;;;;;;;;;;
2022/04/01 14:43:17;;;;;;;3.17;1.75;;;;;;;10.15;44.70;98686.75;1832803;105;26058;-84
2022/04/01 14:51:15;;;;;;;4.00;1.52;;;;;;;10.11;44.82;98685.03;1768644;110;26722;-85
2022/04/01 14:55:10;;;;;;;9.18;2.15;;;;;;;10.08;44.87;98693.70;1749010;111;25912;-82
2022/04/01 14:58:52;;;;;;;;;;;;;;;;;;;;;
2022/04/01 15:02:29;;;;;;;4.78;1.95;;;;;;;10.02;45.04;98692.41;1812519;108;25961;-82
2022/04/01 15:06:26;;;;;;;;;;;;;;;;;;;;;
2022/04/01 15:10:00;;;;;;;2.92;1.92;;;;;;;9.98;45.17;98697.19;1866424;104;25835;-78
2022/04/01 15:13:25;;;;;;;2.22;2.02;;;;;;;9.96;45.26;98698.09;1867089;104;25928;-80
2022/04/01 15:24:51;;;;;;;;;;;;;;;;;;;;;
2022/04/01 15:28:37;;;;;;;4.12;2.10;;;;;;;9.83;45.52;98704.59;1778656;110;26580;-83
2022/04/01 15:31:56;;;;;;;;;;;;;;;;;;;;;
2022/04/01 15:35:53;;;;;;;3.67;2.20;;;;;;;9.77;45.63;98716.30;1789482;106;25881;-82
2022/04/01 15:40:06;;;;;;;;;;;;;;;;;;;;;
2022/04/01 15:43:59;;;;;;;;;;;;;;;;;;;;;
2022/04/01 15:47:58;;;;;;;;;;;;;;;;;;;;;
2022/04/01 15:56:40;;;;;;;;;;;;;;;;;;;;;
2022/04/01 16:00:32;;;;;;;;;;;;;;;;;;;;;
2022/04/01 16:04:21;;;;;;;3.17;2.50;;;;;;;9.48;50.21;98725.37;1829324;104;25862;-81
2022/04/01 16:11:51;;;;;;;6.58;2.67;;;;;;;9.78;48.96;98731.03;1762129;109;26180;-80
2022/04/01 16:15:32;;;;;;;7.47;3.47;;;;;;;9.69;49.02;98730.61;1769006;111;26121;-80
2022/04/01 16:19:01;;;;;;;4.05;2.85;;;;;;;9.63;49.03;98731.05;1774274;109;26443;-81
2022/04/01 16:26:50;;;;;;;5.53;2.42;;;;;;;9.53;49.00;98743.16;1812122;105;26698;-82
2022/04/01 16:30:53;;;;;;;4.53;2.40;;;;;;;9.48;48.91;98737.51;1871796;104;25929;-79
2022/04/01 16:38:52;;;;;;;4.75;2.62;;;;;;;9.34;48.69;98735.75;1891557;103;25829;-81
2022/04/01 16:42:18;;;;;;;3.75;2.75;;;;;;;9.29;48.62;98732.73;1917740;100;26004;-79
2022/04/01 16:45:54;;;;;;;5.42;2.98;;;;;;;9.25;48.55;98735.75;1932144;100;25929;-81
2022/04/01 16:49:24;;;;;;;6.12;3.35;;;;;;;9.22;48.52;98743.55;1975081;98;26115;-80
2022/04/01 16:53:01;;;;;;;3.15;2.65;;;;;;;9.19;48.52;98745.69;1930799;101;25830;-81
2022/04/01 16:56:52;;;;;;;8.68;3.98;;;;;;;9.18;48.46;98743.97;1956785;98;25790;-80
2022/04/01 17:00:22;;;;;;;4.12;2.95;;;;;;;9.15;48.43;98734.86;1974073;98;25921;-80
2022/04/01 17:04:13;;;;;;;6.67;2.37;;;;;;;9.12;48.38;98745.68;1988966;96;25855;-82
2022/04/01 17:12:40;;;;;;;3.10;2.40;;;;;;;9.07;48.35;98754.74;1991312;99;25774;-81
2022/04/01 17:16:52;;;;;;;;;;;;;;;;;;;;;
2022/04/01 17:20:17;;;;;;;4.90;2.70;;;;;;;9.01;48.26;98761.25;1915954;101;26091;-83
2022/04/01 17:24:08;;;;;;;4.40;2.45;;;;;;;8.96;48.27;98761.64;1910528;101;26169;-81
2022/04/01 17:27:36;;;;;;;4.62;2.40;;;;;;;8.94;48.28;98760.75;1830279;106;25912;-77
2022/04/01 17:35:20;;;;;;;6.40;2.92;;;;;;;8.87;48.27;98774.16;1772627;109;26018;-81
2022/04/01 17:39:27;;;;;;;4.72;3.35;;;;;;;8.86;48.26;98771.56;1762901;111;26157;-81
2022/04/01 17:43:12;;;;;;;5.72;3.22;;;;;;;8.84;48.27;98771.97;1728204;112;26063;-81
2022/04/01 17:46:39;;;;;;;5.25;4.12;;;;;;;8.82;48.29;98783.67;1759880;108;26542;-81
2022/04/01 17:50:13;;;;;;;5.78;3.30;;;;;;;8.80;48.27;98784.08;1800918;108;26570;-82
2022/04/01 17:53:56;;;;;;;;;;;;;;;;;;;;;
2022/04/01 17:57:50;;;;;;;5.67;3.67;;;;;;;8.78;48.29;98781.92;1784339;110;25911;-82
2022/04/01 18:01:25;;;;;;;4.85;3.50;;;;;;;8.78;48.27;98771.53;1789238;110;25814;-80
2022/04/01 18:05:16;;;;;;;;;;;;;;;;;;;;;
2022/04/01 18:08:51;;;;;;;8.33;4.05;;;;;;;8.73;48.27;98774.52;1805270;108;25547;-82
2022/04/01 18:12:35;;;;;;;4.60;3.37;;;;;;;8.71;48.28;98770.63;1805957;108;25906;-83
2022/04/01 18:16:06;;;;;;;3.42;3.08;;;;;;;8.70;48.28;98783.59;1789757;109;25878;-83
2022/04/01 18:19:31;;;;;;;4.35;3.95;;;;;;;8.69;48.30;98780.57;1819279;108;26068;-82
2022/04/01 18:22:57;;;;;;;3.58;3.27;;;;;;;8.68;48.31;98774.51;1824508;104;25877;-82
2022/04/01 18:26:38;;;;;;;3.45;3.02;;;;;;;8.67;48.31;98777.98;1899485;103;25798;-82
2022/04/01 18:30:01;;;;;;;4.10;3.75;;;;;;;8.67;48.29;98780.98;1901717;101;25794;-81
2022/04/01 18:33:54;;;;;;;7.65;4.42;;;;;;;8.64;48.33;98780.95;1897338;101;25512;-82
2022/04/01 18:41:06;;;;;;;4.05;3.33;;;;;;;8.64;48.31;98781.86;1911283;100;25942;-81
2022/04/01 18:45:02;;;;;;;7.40;2.95;;;;;;;8.62;48.32;98783.56;1899826;102;25979;-79
2022/04/01 18:52:23;;;;;;;3.95;3.52;;;;;;;8.61;48.37;98783.56;1867867;104;25791;-82
2022/04/01 18:55:57;;;;;;;3.75;3.45;;;;;;;8.58;48.36;98787.01;1827297;108;26586;-82
2022/04/01 18:59:56;;;;;;;4.53;3.80;;;;;;;8.59;48.37;98782.67;1813026;108;25882;-80
2022/04/01 19:03:37;;;;;;;4.05;2.90;;;;;;;8.58;48.37;98783.55;1823035;108;25937;-80
2022/04/01 19:11:56;;;;;;;3.50;3.02;;;;;;;8.55;48.41;98786.12;1822103;107;25847;-84
2022/04/01 19:15:38;;;;;;;4.28;2.95;;;;;;;8.54;48.40;98785.26;1795635;109;25866;-81
2022/04/01 19:19:35;;;;;;;4.40;3.50;;;;;;;8.50;48.42;98781.77;1736548;113;25939;-77
2022/04/01 19:26:57;;;;;;;4.97;2.83;;;;;;;8.49;48.44;98789.11;1785760;109;26059;-78
2022/04/01 19:30:37;;;;;;;7.75;3.22;;;;;;;8.48;48.46;98783.91;1782603;109;26637;-78
2022/04/01 19:33:54;;;;;;;3.35;2.70;;;;;;;8.46;48.49;98785.62;1699653;114;26071;-81
2022/04/01 19:41:44;;;;;;;7.15;2.65;;;;;;;8.46;48.51;98783.02;1710886;114;25880;-81
2022/04/01 19:45:29;;;;;;;3.08;2.30;;;;;;;8.43;48.54;98789.06;1708121;114;25948;-82
2022/04/01 19:48:51;;;;;;;4.50;1.92;;;;;;;8.43;48.55;98789.06;1736852;112;26496;-81
2022/04/01 19:52:41;;;;;;;2.35;2.10;;;;;;;8.42;48.57;98783.44;1714550;113;25961;-81
2022/04/01 19:56:04;;;;;;;3.40;2.37;;;;;;;8.41;48.58;98790.80;1751665;108;26152;-82
2022/04/01 19:59:40;;;;;;;2.27;2.00;;;;;;;8.41;48.58;98780.84;1753806;110;26091;-85
2022/04/01 20:07:30;;;;;;;3.87;2.27;;;;;;;8.39;48.59;98782.55;1739178;112;25963;-84
2022/04/01 20:11:24;;;;;;;2.65;2.27;;;;;;;8.38;48.64;98786.88;1711751;114;25744;-82
2022/04/01 20:14:52;;;;;;;2.37;1.80;;;;;;;8.37;48.65;98774.73;1717697;112;25899;-82
2022/04/01 20:18:24;;;;;;;3.10;2.40;;;;;;;8.36;48.68;98779.46;1760875;111;25536;-81
2022/04/01 20:22:17;;;;;;;4.90;2.35;;;;;;;8.37;48.69;98775.13;1753810;112;26638;-83
2022/04/01 20:28:44;;;;;;;3.00;1.98;;;;;;;8.36;48.72;98780.76;1743675;112;26040;-82
2022/04/01 20:32:10;;;;;;;4.37;1.82;;;;;;;8.34;48.71;98777.30;1740395;113;25847;-81
2022/04/01 20:35:33;;;;;;;2.17;1.92;;;;;;;8.31;48.74;98772.09;1740300;113;26595;-81
2022/04/01 20:38:57;;;;;;;2.00;1.80;;;;;;;8.31;48.77;98772.52;1752347;112;25914;-81
2022/04/01 20:42:30;;;;;;;17.48;5.97;;;;;;;8.30;48.85;98776.81;1790391;108;33273;-81
2022/04/01 20:45:50;;;;;;;6.25;3.65;;;;;;;8.79;56.76;98777.59;1812075;109;26174;-74
2022/04/01 20:49:11;;;;;;;6.57;3.43;;;;;;;9.16;56.46;98770.81;1808506;107;25827;-75
2022/04/01 20:52:38;;;;;;;10.83;3.27;;;;;;;9.27;57.29;98772.14;1860603;105;26382;-74
2022/04/01 20:55:59;;;;;;;5.75;2.42;;;;;;;9.38;58.00;98768.72;1899564;102;25955;-79
2022/04/01 20:59:22;;;;;;;6.70;1.92;;;;;;;9.52;58.55;98768.75;1912779;101;26272;-77
2022/04/01 21:02:51;;;;;;;6.30;2.92;;;;;;;9.62;58.67;98758.80;1955641;97;26317;-80
2022/04/01 21:06:19;;;;;;;2.80;2.20;;;;;;;9.69;57.20;98760.98;1994305;97;25785;-77
2022/04/01 21:09:39;;;;;;;5.83;2.10;;;;;;;9.60;56.31;98755.75;2015837;97;25903;-81
2022/04/01 21:13:00;;;;;;;1.60;1.50;;;;;;;9.46;55.62;98761.80;2022733;97;34752;-79
2022/04/01 21:16:22;;;;;;;1.90;1.62;;;;;;;9.33;55.11;98760.47;2022663;96;25347;-77
2022/04/01 21:19:46;;;;;;;2.12;1.62;;;;;;;9.14;54.45;98750.44;2019015;96;25944;-81
2022/04/01 21:23:37;;;;;;;2.87;2.22;;;;;;;8.94;54.04;98756.86;2104162;93;25939;-75
2022/04/01 21:30:54;;;;;;;3.42;2.12;;;;;;;8.60;53.46;98757.13;2131171;90;25819;-84
2022/04/01 21:35:21;;;;;;;;;;;;;;;;;;;;;
2022/04/01 21:43:08;;;;;;;;;;;;;;;;;;;;;
2022/04/01 21:46:55;;;;;;;4.37;2.35;;;;;;;8.21;53.01;98754.28;2041383;95;26220;-78
2022/04/01 21:54:24;;;;;;;3.12;2.10;;;;;;;8.14;52.89;98748.61;2036811;94;25808;-79
2022/04/01 21:57:47;;;;;;;2.98;2.25;;;;;;;8.08;52.76;98746.40;2051506;96;25834;-77
2022/04/01 22:05:44;;;;;;;2.30;2.02;;;;;;;7.94;52.82;98741.11;1871388;105;25815;-87